sensor_id;sensor_type;location;lat;lon;timestamp;pressure;altitude;pressure_sealevel;temperature;humidity
77799;BME280;66989;50.426;15.352;2023-09-07T00:00:23;98983.66;;;16.20;77.12
77799;BME280;66989;50.426;15.352;2023-09-07T00:02:48;98986.63;;;16.17;77.52
77799;BME280;66989;50.426;15.352;2023-09-07T00:05:14;98985.19;;;16.13;77.52
77799;BME280;66989;50.426;15.352;2023-09-07T00:07:39;98990.06;;;16.08;78.04
77799;BME280;66989;50.426;15.352;2023-09-07T00:10:05;98982.63;;;16.02;77.97
77799;BME280;66989;50.426;15.352;2023-09-07T00:12:30;98984.09;;;15.95;78.59
77799;BME280;66989;50.426;15.352;2023-09-07T00:14:57;98987.28;;;15.89;78.77
77799;BME280;66989;50.426;15.352;2023-09-07T00:17:23;98991.19;;;15.85;79.44
77799;BME280;66989;50.426;15.352;2023-09-07T00:19:48;98988.34;;;15.76;79.35
77799;BME280;66989;50.426;15.352;2023-09-07T00:22:16;98986.47;;;15.67;80.04
77799;BME280;66989;50.426;15.352;2023-09-07T00:24:41;98980.94;;;15.59;80.39
77799;BME280;66989;50.426;15.352;2023-09-07T00:27:06;98984.41;;;15.50;81.65
77799;BME280;66989;50.426;15.352;2023-09-07T00:29:34;98985.88;;;15.43;82.15
77799;BME280;66989;50.426;15.352;2023-09-07T00:32:00;98995.22;;;15.37;83.17
77799;BME280;66989;50.426;15.352;2023-09-07T00:34:26;98991.97;;;15.34;82.52
77799;BME280;66989;50.426;15.352;2023-09-07T00:36:51;98987.75;;;15.31;82.95
77799;BME280;66989;50.426;15.352;2023-09-07T00:39:16;98984.13;;;15.32;82.89
77799;BME280;66989;50.426;15.352;2023-09-07T00:41:42;98985.09;;;15.31;82.73
77799;BME280;66989;50.426;15.352;2023-09-07T00:44:07;98987.75;;;15.31;82.35
77799;BME280;66989;50.426;15.352;2023-09-07T00:46:33;98983.28;;;15.32;82.18
77799;BME280;66989;50.426;15.352;2023-09-07T00:48:58;98982.31;;;15.33;81.93
77799;BME280;66989;50.426;15.352;2023-09-07T00:51:24;98982.19;;;15.34;81.69
77799;BME280;66989;50.426;15.352;2023-09-07T00:53:50;98980.09;;;15.38;81.58
77799;BME280;66989;50.426;15.352;2023-09-07T00:56:15;98984.19;;;15.42;81.29
77799;BME280;66989;50.426;15.352;2023-09-07T00:58:41;98984.66;;;15.47;81.10
77799;BME280;66989;50.426;15.352;2023-09-07T01:01:08;98974.63;;;15.50;80.58
77799;BME280;66989;50.426;15.352;2023-09-07T01:03:34;98979.56;;;15.55;80.71
77799;BME280;66989;50.426;15.352;2023-09-07T01:06:12;98973.13;;;15.58;80.24
77799;BME280;66989;50.426;15.352;2023-09-07T01:08:50;98977.44;;;15.59;80.25
77799;BME280;66989;50.426;15.352;2023-09-07T01:11:18;98982.91;;;15.57;80.43
77799;BME280;66989;50.426;15.352;2023-09-07T01:13:48;98980.38;;;15.55;80.28
77799;BME280;66989;50.426;15.352;2023-09-07T01:16:14;98978.72;;;15.54;80.03
77799;BME280;66989;50.426;15.352;2023-09-07T01:18:40;98984.88;;;15.55;80.70
77799;BME280;66989;50.426;15.352;2023-09-07T01:21:11;98982.31;;;15.53;80.21
77799;BME280;66989;50.426;15.352;2023-09-07T01:23:38;98982.59;;;15.50;79.95
77799;BME280;66989;50.426;15.352;2023-09-07T01:26:07;98981.75;;;15.50;79.85
77799;BME280;66989;50.426;15.352;2023-09-07T01:28:34;98980.31;;;15.46;79.84
77799;BME280;66989;50.426;15.352;2023-09-07T01:30:59;98983.94;;;15.45;80.29
77799;BME280;66989;50.426;15.352;2023-09-07T01:33:26;98985.03;;;15.42;80.28
77799;BME280;66989;50.426;15.352;2023-09-07T01:35:52;98980.00;;;15.39;80.16
77799;BME280;66989;50.426;15.352;2023-09-07T01:38:17;98978.69;;;15.34;80.79
77799;BME280;66989;50.426;15.352;2023-09-07T01:40:43;98977.38;;;15.28;80.53
77799;BME280;66989;50.426;15.352;2023-09-07T01:43:08;98978.72;;;15.22;80.81
77799;BME280;66989;50.426;15.352;2023-09-07T01:45:33;98983.53;;;15.17;80.80
77799;BME280;66989;50.426;15.352;2023-09-07T01:47:59;98981.25;;;15.13;80.90
77799;BME280;66989;50.426;15.352;2023-09-07T01:50:25;98984.34;;;15.08;81.63
77799;BME280;66989;50.426;15.352;2023-09-07T01:52:51;98984.44;;;15.07;81.56
77799;BME280;66989;50.426;15.352;2023-09-07T01:55:16;98991.84;;;15.03;81.68
77799;BME280;66989;50.426;15.352;2023-09-07T01:57:42;98987.72;;;14.99;82.29
77799;BME280;66989;50.426;15.352;2023-09-07T02:00:10;98985.44;;;14.94;82.94
77799;BME280;66989;50.426;15.352;2023-09-07T02:02:38;98989.31;;;14.90;83.33
77799;BME280;66989;50.426;15.352;2023-09-07T02:05:04;98985.22;;;14.86;83.27
77799;BME280;66989;50.426;15.352;2023-09-07T02:07:30;98987.31;;;14.83;83.58
77799;BME280;66989;50.426;15.352;2023-09-07T02:09:55;98986.56;;;14.81;83.62
77799;BME280;66989;50.426;15.352;2023-09-07T02:12:21;98978.59;;;14.81;83.42
77799;BME280;66989;50.426;15.352;2023-09-07T02:14:46;98978.88;;;14.77;83.59
77799;BME280;66989;50.426;15.352;2023-09-07T02:17:11;98973.94;;;14.73;83.40
77799;BME280;66989;50.426;15.352;2023-09-07T02:19:43;98979.34;;;14.71;83.68
77799;BME280;66989;50.426;15.352;2023-09-07T02:22:08;98977.94;;;14.67;83.86
77799;BME280;66989;50.426;15.352;2023-09-07T02:24:34;98986.13;;;14.64;84.80
77799;BME280;66989;50.426;15.352;2023-09-07T02:27:00;98978.44;;;14.61;85.06
77799;BME280;66989;50.426;15.352;2023-09-07T02:29:25;98983.00;;;14.59;85.28
77799;BME280;66989;50.426;15.352;2023-09-07T02:31:50;98983.97;;;14.58;84.96
77799;BME280;66989;50.426;15.352;2023-09-07T02:34:16;98991.09;;;14.58;85.43
77799;BME280;66989;50.426;15.352;2023-09-07T02:36:41;98985.91;;;14.56;84.89
77799;BME280;66989;50.426;15.352;2023-09-07T02:39:06;98973.84;;;14.52;85.16
77799;BME280;66989;50.426;15.352;2023-09-07T02:41:33;98989.31;;;14.47;84.97
77799;BME280;66989;50.426;15.352;2023-09-07T02:43:59;98988.56;;;14.45;84.99
77799;BME280;66989;50.426;15.352;2023-09-07T02:46:24;98989.66;;;14.42;85.42
77799;BME280;66989;50.426;15.352;2023-09-07T02:48:49;98987.16;;;14.41;85.28
77799;BME280;66989;50.426;15.352;2023-09-07T02:51:15;98987.38;;;14.38;85.64
77799;BME280;66989;50.426;15.352;2023-09-07T02:53:40;98984.00;;;14.36;85.60
77799;BME280;66989;50.426;15.352;2023-09-07T02:56:06;98990.53;;;14.32;85.81
77799;BME280;66989;50.426;15.352;2023-09-07T02:58:32;98988.34;;;14.25;86.25
77799;BME280;66989;50.426;15.352;2023-09-07T03:00:58;98978.94;;;14.21;86.51
77799;BME280;66989;50.426;15.352;2023-09-07T03:03:24;98987.41;;;14.15;86.35
77799;BME280;66989;50.426;15.352;2023-09-07T03:05:49;98987.63;;;14.12;86.77
77799;BME280;66989;50.426;15.352;2023-09-07T03:08:14;98983.66;;;14.07;86.48
77799;BME280;66989;50.426;15.352;2023-09-07T03:10:40;98990.00;;;14.04;86.67
77799;BME280;66989;50.426;15.352;2023-09-07T03:13:06;98992.19;;;13.99;86.84
77799;BME280;66989;50.426;15.352;2023-09-07T03:15:32;98990.75;;;13.95;87.05
77799;BME280;66989;50.426;15.352;2023-09-07T03:17:57;98992.56;;;13.94;87.16
77799;BME280;66989;50.426;15.352;2023-09-07T03:20:23;98990.50;;;13.87;86.08
77799;BME280;66989;50.426;15.352;2023-09-07T03:22:48;98986.16;;;13.86;86.44
77799;BME280;66989;50.426;15.352;2023-09-07T03:25:14;98984.69;;;13.82;86.29
77799;BME280;66989;50.426;15.352;2023-09-07T03:27:39;98983.00;;;13.81;86.81
77799;BME280;66989;50.426;15.352;2023-09-07T03:30:05;98986.00;;;13.76;86.94
77799;BME280;66989;50.426;15.352;2023-09-07T03:32:31;98977.41;;;13.72;87.54
77799;BME280;66989;50.426;15.352;2023-09-07T03:35:03;98980.31;;;13.69;88.36
77799;BME280;66989;50.426;15.352;2023-09-07T03:37:34;98986.94;;;13.64;88.37
77799;BME280;66989;50.426;15.352;2023-09-07T03:39:59;98981.03;;;13.60;88.87
77799;BME280;66989;50.426;15.352;2023-09-07T03:42:25;98977.41;;;13.61;89.09
77799;BME280;66989;50.426;15.352;2023-09-07T03:44:50;98981.75;;;13.62;88.74
77799;BME280;66989;50.426;15.352;2023-09-07T03:47:17;98982.47;;;13.64;88.90
77799;BME280;66989;50.426;15.352;2023-09-07T03:49:43;98982.22;;;13.67;88.75
77799;BME280;66989;50.426;15.352;2023-09-07T03:52:09;98982.84;;;13.71;88.71
77799;BME280;66989;50.426;15.352;2023-09-07T03:54:35;98984.06;;;13.78;89.34
77799;BME280;66989;50.426;15.352;2023-09-07T03:57:00;98981.09;;;13.83;88.39
77799;BME280;66989;50.426;15.352;2023-09-07T03:59:27;98988.69;;;13.87;88.31
77799;BME280;66989;50.426;15.352;2023-09-07T04:01:53;98987.13;;;13.85;87.83
77799;BME280;66989;50.426;15.352;2023-09-07T04:04:20;98988.09;;;13.84;87.88
77799;BME280;66989;50.426;15.352;2023-09-07T04:06:46;98983.84;;;13.81;87.83
77799;BME280;66989;50.426;15.352;2023-09-07T04:09:13;98988.28;;;13.81;87.86
77799;BME280;66989;50.426;15.352;2023-09-07T04:11:39;98983.22;;;13.78;87.66
77799;BME280;66989;50.426;15.352;2023-09-07T04:14:04;98986.69;;;13.78;87.50
77799;BME280;66989;50.426;15.352;2023-09-07T04:16:30;98982.38;;;13.77;87.61
77799;BME280;66989;50.426;15.352;2023-09-07T04:18:56;98985.88;;;13.78;87.59
77799;BME280;66989;50.426;15.352;2023-09-07T04:21:21;98983.22;;;13.78;87.72
77799;BME280;66989;50.426;15.352;2023-09-07T04:23:47;98986.22;;;13.73;87.09
77799;BME280;66989;50.426;15.352;2023-09-07T04:26:12;98995.97;;;13.72;87.51
77799;BME280;66989;50.426;15.352;2023-09-07T04:28:38;98999.59;;;13.71;87.58
77799;BME280;66989;50.426;15.352;2023-09-07T04:31:05;98994.41;;;13.70;87.54
77799;BME280;66989;50.426;15.352;2023-09-07T04:33:31;99003.22;;;13.70;87.37
77799;BME280;66989;50.426;15.352;2023-09-07T04:35:56;98994.28;;;13.71;87.76
77799;BME280;66989;50.426;15.352;2023-09-07T04:38:22;99003.84;;;13.74;87.29
77799;BME280;66989;50.426;15.352;2023-09-07T04:40:48;99002.88;;;13.75;87.68
77799;BME280;66989;50.426;15.352;2023-09-07T04:43:13;99003.56;;;13.77;87.32
77799;BME280;66989;50.426;15.352;2023-09-07T04:45:47;99005.16;;;13.80;86.96
77799;BME280;66989;50.426;15.352;2023-09-07T04:48:13;98997.00;;;13.83;86.49
77799;BME280;66989;50.426;15.352;2023-09-07T04:50:38;99000.38;;;13.85;86.38
77799;BME280;66989;50.426;15.352;2023-09-07T04:53:03;99000.13;;;13.88;86.35
77799;BME280;66989;50.426;15.352;2023-09-07T04:55:29;98996.53;;;13.89;85.89
77799;BME280;66989;50.426;15.352;2023-09-07T04:57:54;99002.56;;;13.91;85.41
77799;BME280;66989;50.426;15.352;2023-09-07T05:00:19;99001.59;;;13.92;85.32
77799;BME280;66989;50.426;15.352;2023-09-07T05:02:45;99002.31;;;13.94;85.29
77799;BME280;66989;50.426;15.352;2023-09-07T05:05:11;99002.78;;;13.99;84.92
77799;BME280;66989;50.426;15.352;2023-09-07T05:07:36;99005.00;;;14.05;84.52
77799;BME280;66989;50.426;15.352;2023-09-07T05:10:02;99006.41;;;14.09;84.47
77799;BME280;66989;50.426;15.352;2023-09-07T05:12:28;99006.19;;;14.12;84.54
77799;BME280;66989;50.426;15.352;2023-09-07T05:14:53;99006.91;;;14.14;84.45
77799;BME280;66989;50.426;15.352;2023-09-07T05:17:18;99008.63;;;14.15;84.40
77799;BME280;66989;50.426;15.352;2023-09-07T05:19:44;99006.66;;;14.17;84.49
77799;BME280;66989;50.426;15.352;2023-09-07T05:22:09;99010.03;;;14.19;84.45
77799;BME280;66989;50.426;15.352;2023-09-07T05:24:37;99013.44;;;14.21;85.26
77799;BME280;66989;50.426;15.352;2023-09-07T05:27:02;99005.13;;;14.26;84.71
77799;BME280;66989;50.426;15.352;2023-09-07T05:29:28;99005.47;;;14.33;84.89
77799;BME280;66989;50.426;15.352;2023-09-07T05:31:53;99013.69;;;14.41;84.65
77799;BME280;66989;50.426;15.352;2023-09-07T05:34:19;99014.88;;;14.48;84.61
77799;BME280;66989;50.426;15.352;2023-09-07T05:36:44;99013.31;;;14.57;84.33
77799;BME280;66989;50.426;15.352;2023-09-07T05:39:09;99012.66;;;14.64;83.95
77799;BME280;66989;50.426;15.352;2023-09-07T05:41:35;99005.78;;;14.73;83.87
77799;BME280;66989;50.426;15.352;2023-09-07T05:44:00;99007.56;;;14.84;83.71
77799;BME280;66989;50.426;15.352;2023-09-07T05:46:26;99009.34;;;14.94;83.37
77799;BME280;66989;50.426;15.352;2023-09-07T05:48:51;99013.53;;;15.08;82.78
77799;BME280;66989;50.426;15.352;2023-09-07T05:51:17;99013.03;;;15.25;82.58
77799;BME280;66989;50.426;15.352;2023-09-07T05:53:42;99014.72;;;15.47;81.71
77799;BME280;66989;50.426;15.352;2023-09-07T05:56:07;99019.81;;;15.71;81.20
77799;BME280;66989;50.426;15.352;2023-09-07T05:58:33;99005.84;;;16.00;80.33
77799;BME280;66989;50.426;15.352;2023-09-07T06:00:59;99010.06;;;16.33;79.52
77799;BME280;66989;50.426;15.352;2023-09-07T06:03:25;99008.69;;;16.69;78.22
77799;BME280;66989;50.426;15.352;2023-09-07T06:05:50;99002.31;;;17.10;77.19
77799;BME280;66989;50.426;15.352;2023-09-07T06:08:15;99003.84;;;17.52;75.72
77799;BME280;66989;50.426;15.352;2023-09-07T06:10:41;99006.88;;;17.96;73.81
77799;BME280;66989;50.426;15.352;2023-09-07T06:13:06;99004.34;;;18.41;72.17
77799;BME280;66989;50.426;15.352;2023-09-07T06:15:32;99010.63;;;18.87;70.60
77799;BME280;66989;50.426;15.352;2023-09-07T06:17:57;99005.91;;;19.34;69.30
77799;BME280;66989;50.426;15.352;2023-09-07T06:20:22;99001.69;;;19.85;67.98
77799;BME280;66989;50.426;15.352;2023-09-07T06:22:48;99000.28;;;20.33;66.17
77799;BME280;66989;50.426;15.352;2023-09-07T06:25:14;98994.66;;;20.79;64.87
77799;BME280;66989;50.426;15.352;2023-09-07T06:27:39;98992.59;;;21.23;63.31
77799;BME280;66989;50.426;15.352;2023-09-07T06:30:06;98998.19;;;21.70;62.07
77799;BME280;66989;50.426;15.352;2023-09-07T06:32:31;98997.56;;;22.16;60.57
77799;BME280;66989;50.426;15.352;2023-09-07T06:34:57;98998.31;;;22.65;59.36
77799;BME280;66989;50.426;15.352;2023-09-07T06:37:23;98997.56;;;23.11;57.87
77799;BME280;66989;50.426;15.352;2023-09-07T06:39:50;98984.16;;;23.56;56.79
77799;BME280;66989;50.426;15.352;2023-09-07T06:42:15;98986.91;;;24.01;55.61
77799;BME280;66989;50.426;15.352;2023-09-07T06:44:41;98990.44;;;24.39;54.26
77799;BME280;66989;50.426;15.352;2023-09-07T06:47:06;98994.28;;;24.81;53.84
77799;BME280;66989;50.426;15.352;2023-09-07T06:49:32;98995.63;;;25.21;52.60
77799;BME280;66989;50.426;15.352;2023-09-07T06:51:57;98992.25;;;25.62;51.49
77799;BME280;66989;50.426;15.352;2023-09-07T06:54:23;98996.97;;;26.03;50.28
77799;BME280;66989;50.426;15.352;2023-09-07T06:56:48;98992.06;;;26.41;49.41
77799;BME280;66989;50.426;15.352;2023-09-07T06:59:14;98997.03;;;26.79;48.21
77799;BME280;66989;50.426;15.352;2023-09-07T07:01:39;98997.97;;;27.06;46.81
77799;BME280;66989;50.426;15.352;2023-09-07T07:04:04;98993.69;;;27.38;46.71
77799;BME280;66989;50.426;15.352;2023-09-07T07:06:30;98995.00;;;27.49;44.75
77799;BME280;66989;50.426;15.352;2023-09-07T07:08:55;98992.91;;;27.44;45.81
77799;BME280;66989;50.426;15.352;2023-09-07T07:11:20;99000.25;;;27.02;46.28
77799;BME280;66989;50.426;15.352;2023-09-07T07:13:46;98997.44;;;27.30;46.96
77799;BME280;66989;50.426;15.352;2023-09-07T07:16:11;99002.06;;;27.56;45.55
77799;BME280;66989;50.426;15.352;2023-09-07T07:18:37;98990.59;;;27.74;43.62
77799;BME280;66989;50.426;15.352;2023-09-07T07:21:02;98992.09;;;28.03;44.29
77799;BME280;66989;50.426;15.352;2023-09-07T07:23:27;98996.66;;;28.22;43.84
77799;BME280;66989;50.426;15.352;2023-09-07T07:25:53;98987.69;;;28.42;44.02
77799;BME280;66989;50.426;15.352;2023-09-07T07:28:18;98993.88;;;28.56;43.43
77799;BME280;66989;50.426;15.352;2023-09-07T07:30:43;98993.63;;;28.70;43.23
77799;BME280;66989;50.426;15.352;2023-09-07T07:33:09;98993.16;;;28.87;42.90
77799;BME280;66989;50.426;15.352;2023-09-07T07:35:37;99000.34;;;28.68;42.46
77799;BME280;66989;50.426;15.352;2023-09-07T07:38:03;98996.94;;;28.79;42.01
77799;BME280;66989;50.426;15.352;2023-09-07T07:40:30;99005.50;;;28.76;42.06
77799;BME280;66989;50.426;15.352;2023-09-07T07:42:55;98992.53;;;28.85;42.17
77799;BME280;66989;50.426;15.352;2023-09-07T07:45:20;98996.41;;;29.02;42.08
77799;BME280;66989;50.426;15.352;2023-09-07T07:47:48;98998.09;;;29.10;41.27
77799;BME280;66989;50.426;15.352;2023-09-07T07:50:14;98993.69;;;29.15;41.09
77799;BME280;66989;50.426;15.352;2023-09-07T07:52:39;98992.91;;;29.40;40.82
77799;BME280;66989;50.426;15.352;2023-09-07T07:55:05;98998.97;;;29.73;40.64
77799;BME280;66989;50.426;15.352;2023-09-07T07:57:31;98988.06;;;29.73;39.68
77799;BME280;66989;50.426;15.352;2023-09-07T07:59:56;98998.16;;;30.16;40.06
77799;BME280;66989;50.426;15.352;2023-09-07T08:02:22;98991.41;;;30.62;39.60
77799;BME280;66989;50.426;15.352;2023-09-07T08:04:47;98994.63;;;30.96;38.48
77799;BME280;66989;50.426;15.352;2023-09-07T08:07:13;98991.19;;;31.30;38.07
77799;BME280;66989;50.426;15.352;2023-09-07T08:09:38;98991.25;;;31.42;36.35
77799;BME280;66989;50.426;15.352;2023-09-07T08:12:04;98992.53;;;31.51;35.90
77799;BME280;66989;50.426;15.352;2023-09-07T08:14:30;98990.84;;;31.57;36.02
77799;BME280;66989;50.426;15.352;2023-09-07T08:16:56;98991.44;;;31.41;35.45
77799;BME280;66989;50.426;15.352;2023-09-07T08:19:21;99002.28;;;31.17;35.62
77799;BME280;66989;50.426;15.352;2023-09-07T08:21:46;98995.63;;;31.13;36.15
77799;BME280;66989;50.426;15.352;2023-09-07T08:24:12;98996.03;;;31.28;36.35
77799;BME280;66989;50.426;15.352;2023-09-07T08:26:38;98993.06;;;31.30;35.85
77799;BME280;66989;50.426;15.352;2023-09-07T08:29:04;98990.03;;;31.38;35.76
77799;BME280;66989;50.426;15.352;2023-09-07T08:31:34;98991.28;;;31.24;35.32
77799;BME280;66989;50.426;15.352;2023-09-07T08:34:04;98984.84;;;31.48;35.27
77799;BME280;66989;50.426;15.352;2023-09-07T08:36:30;98984.34;;;31.81;34.92
77799;BME280;66989;50.426;15.352;2023-09-07T08:39:05;98972.72;;;31.98;34.45
77799;BME280;66989;50.426;15.352;2023-09-07T08:41:45;98979.88;;;32.22;34.08
77799;BME280;66989;50.426;15.352;2023-09-07T08:44:11;98971.06;;;32.44;33.54
77799;BME280;66989;50.426;15.352;2023-09-07T08:46:37;98976.56;;;32.32;33.18
77799;BME280;66989;50.426;15.352;2023-09-07T08:49:05;98981.91;;;32.15;33.49
77799;BME280;66989;50.426;15.352;2023-09-07T08:51:34;98967.66;;;32.25;33.36
77799;BME280;66989;50.426;15.352;2023-09-07T08:54:01;98969.31;;;32.38;33.54
77799;BME280;66989;50.426;15.352;2023-09-07T08:56:31;98970.34;;;32.48;33.24
77799;BME280;66989;50.426;15.352;2023-09-07T08:58:57;98966.78;;;32.71;33.21
77799;BME280;66989;50.426;15.352;2023-09-07T09:01:23;98967.09;;;32.75;31.84
77799;BME280;66989;50.426;15.352;2023-09-07T09:03:51;98972.25;;;33.00;31.33
77799;BME280;66989;50.426;15.352;2023-09-07T09:06:19;98968.03;;;32.92;31.28
77799;BME280;66989;50.426;15.352;2023-09-07T09:08:47;98972.06;;;32.90;30.82
77799;BME280;66989;50.426;15.352;2023-09-07T09:11:18;98974.00;;;33.06;31.35
77799;BME280;66989;50.426;15.352;2023-09-07T09:13:44;98973.34;;;32.99;29.43
77799;BME280;66989;50.426;15.352;2023-09-07T09:16:13;98978.03;;;32.75;29.78
77799;BME280;66989;50.426;15.352;2023-09-07T09:18:52;98975.94;;;32.42;30.66
77799;BME280;66989;50.426;15.352;2023-09-07T09:21:22;98979.03;;;32.45;31.13
77799;BME280;66989;50.426;15.352;2023-09-07T09:23:49;98978.91;;;32.52;30.96
77799;BME280;66989;50.426;15.352;2023-09-07T09:26:18;98982.41;;;32.88;30.76
77799;BME280;66989;50.426;15.352;2023-09-07T09:28:44;98974.00;;;32.66;31.28
77799;BME280;66989;50.426;15.352;2023-09-07T09:31:10;98975.31;;;32.75;29.90
77799;BME280;66989;50.426;15.352;2023-09-07T09:33:38;98978.13;;;32.92;30.10
77799;BME280;66989;50.426;15.352;2023-09-07T09:36:05;98974.19;;;33.16;29.38
77799;BME280;66989;50.426;15.352;2023-09-07T09:38:32;98972.38;;;33.33;29.27
77799;BME280;66989;50.426;15.352;2023-09-07T09:40:58;98960.63;;;33.33;29.04
77799;BME280;66989;50.426;15.352;2023-09-07T09:43:24;98965.50;;;33.31;29.05
77799;BME280;66989;50.426;15.352;2023-09-07T09:45:51;98961.56;;;33.55;28.88
77799;BME280;66989;50.426;15.352;2023-09-07T09:48:18;98959.69;;;33.89;29.00
77799;BME280;66989;50.426;15.352;2023-09-07T09:50:46;98947.41;;;33.92;28.22
77799;BME280;66989;50.426;15.352;2023-09-07T09:53:12;98954.44;;;34.05;28.54
77799;BME280;66989;50.426;15.352;2023-09-07T09:55:41;98955.78;;;33.85;29.04
77799;BME280;66989;50.426;15.352;2023-09-07T09:58:06;98956.09;;;33.55;29.58
77799;BME280;66989;50.426;15.352;2023-09-07T10:00:32;98943.66;;;33.64;29.15
77799;BME280;66989;50.426;15.352;2023-09-07T10:03:07;98948.19;;;34.26;29.18
77799;BME280;66989;50.426;15.352;2023-09-07T10:05:36;98947.50;;;34.19;28.90
77799;BME280;66989;50.426;15.352;2023-09-07T10:08:02;98936.75;;;33.45;29.58
77799;BME280;66989;50.426;15.352;2023-09-07T10:10:33;98946.09;;;33.04;29.33
77799;BME280;66989;50.426;15.352;2023-09-07T10:12:59;98945.47;;;32.85;30.12
77799;BME280;66989;50.426;15.352;2023-09-07T10:15:25;98938.88;;;32.57;29.74
77799;BME280;66989;50.426;15.352;2023-09-07T10:18:14;98937.38;;;32.50;29.60
77799;BME280;66989;50.426;15.352;2023-09-07T10:20:58;98941.63;;;32.46;30.17
77799;BME280;66989;50.426;15.352;2023-09-07T10:23:38;98925.88;;;32.36;30.62
77799;BME280;66989;50.426;15.352;2023-09-07T10:26:09;98928.81;;;32.46;30.73
77799;BME280;66989;50.426;15.352;2023-09-07T10:28:35;98932.50;;;32.28;32.16
77799;BME280;66989;50.426;15.352;2023-09-07T10:31:00;98936.50;;;32.49;32.73
77799;BME280;66989;50.426;15.352;2023-09-07T10:33:28;98935.72;;;32.89;32.21
77799;BME280;66989;50.426;15.352;2023-09-07T10:35:54;98934.38;;;33.20;32.30
77799;BME280;66989;50.426;15.352;2023-09-07T10:38:19;98920.78;;;33.87;31.83
77799;BME280;66989;50.426;15.352;2023-09-07T10:40:45;98929.47;;;34.40;30.57
77799;BME280;66989;50.426;15.352;2023-09-07T10:43:11;98923.34;;;34.77;29.55
77799;BME280;66989;50.426;15.352;2023-09-07T10:45:36;98929.19;;;35.07;29.30
77799;BME280;66989;50.426;15.352;2023-09-07T10:48:02;98928.25;;;34.97;29.11
77799;BME280;66989;50.426;15.352;2023-09-07T10:50:29;98923.97;;;34.57;29.48
77799;BME280;66989;50.426;15.352;2023-09-07T10:52:54;98918.47;;;34.57;30.15
77799;BME280;66989;50.426;15.352;2023-09-07T10:55:20;98919.22;;;34.74;29.70
77799;BME280;66989;50.426;15.352;2023-09-07T10:57:46;98925.56;;;35.02;29.83
77799;BME280;66989;50.426;15.352;2023-09-07T11:00:12;98919.31;;;34.57;29.17
77799;BME280;66989;50.426;15.352;2023-09-07T11:02:40;98924.47;;;34.54;30.31
77799;BME280;66989;50.426;15.352;2023-09-07T11:05:06;98920.72;;;35.09;30.29
77799;BME280;66989;50.426;15.352;2023-09-07T11:07:33;98913.53;;;35.62;27.75
77799;BME280;66989;50.426;15.352;2023-09-07T11:09:58;98913.56;;;35.99;25.25
77799;BME280;66989;50.426;15.352;2023-09-07T11:12:24;98910.94;;;36.25;24.64
77799;BME280;66989;50.426;15.352;2023-09-07T11:14:51;98906.78;;;36.12;25.03
77799;BME280;66989;50.426;15.352;2023-09-07T11:17:17;98910.44;;;36.28;24.77
77799;BME280;66989;50.426;15.352;2023-09-07T11:19:43;98907.97;;;35.89;24.88
77799;BME280;66989;50.426;15.352;2023-09-07T11:22:12;98904.59;;;36.14;24.85
77799;BME280;66989;50.426;15.352;2023-09-07T11:24:37;98902.78;;;36.40;24.68
77799;BME280;66989;50.426;15.352;2023-09-07T11:27:03;98902.69;;;36.82;24.44
77799;BME280;66989;50.426;15.352;2023-09-07T11:29:31;98894.25;;;37.40;24.28
77799;BME280;66989;50.426;15.352;2023-09-07T11:32:10;98892.09;;;37.72;23.00
77799;BME280;66989;50.426;15.352;2023-09-07T11:34:46;98897.19;;;38.30;22.78
77799;BME280;66989;50.426;15.352;2023-09-07T11:37:11;98883.28;;;38.66;22.27
77799;BME280;66989;50.426;15.352;2023-09-07T11:39:37;98901.69;;;37.85;21.02
77799;BME280;66989;50.426;15.352;2023-09-07T11:42:02;98903.91;;;37.37;21.45
77799;BME280;66989;50.426;15.352;2023-09-07T11:44:27;98901.09;;;37.02;22.12
77799;BME280;66989;50.426;15.352;2023-09-07T11:46:53;98897.19;;;36.87;22.52
77799;BME280;66989;50.426;15.352;2023-09-07T11:49:18;98890.94;;;37.17;22.10
77799;BME280;66989;50.426;15.352;2023-09-07T11:51:45;98889.59;;;37.71;22.63
77799;BME280;66989;50.426;15.352;2023-09-07T11:54:10;98886.44;;;38.23;21.62
77799;BME280;66989;50.426;15.352;2023-09-07T11:56:37;98886.75;;;38.92;20.96
77799;BME280;66989;50.426;15.352;2023-09-07T11:59:06;98884.16;;;39.45;20.93
77799;BME280;66989;50.426;15.352;2023-09-07T12:01:31;98880.38;;;40.47;19.96
77799;BME280;66989;50.426;15.352;2023-09-07T12:03:56;98884.31;;;40.41;18.21
77799;BME280;66989;50.426;15.352;2023-09-07T12:06:22;98879.38;;;40.99;18.50
77799;BME280;66989;50.426;15.352;2023-09-07T12:09:05;98875.84;;;41.64;18.18
77799;BME280;66989;50.426;15.352;2023-09-07T12:11:42;98876.47;;;42.35;18.03
77799;BME280;66989;50.426;15.352;2023-09-07T12:14:08;98881.75;;;42.73;17.29
77799;BME280;66989;50.426;15.352;2023-09-07T12:16:34;98881.94;;;43.49;16.71
77799;BME280;66989;50.426;15.352;2023-09-07T12:18:59;98887.63;;;42.02;17.40
77799;BME280;66989;50.426;15.352;2023-09-07T12:21:25;98877.00;;;41.63;17.76
77799;BME280;66989;50.426;15.352;2023-09-07T12:23:50;98874.16;;;41.96;18.66
77799;BME280;66989;50.426;15.352;2023-09-07T12:26:15;98862.88;;;42.75;17.96
77799;BME280;66989;50.426;15.352;2023-09-07T12:28:46;98870.91;;;43.57;17.37
77799;BME280;66989;50.426;15.352;2023-09-07T12:31:11;98863.66;;;43.48;17.07
77799;BME280;66989;50.426;15.352;2023-09-07T12:33:37;98876.63;;;42.80;17.82
77799;BME280;66989;50.426;15.352;2023-09-07T12:36:03;98860.56;;;42.27;19.03
77799;BME280;66989;50.426;15.352;2023-09-07T12:38:28;98860.84;;;42.39;18.67
77799;BME280;66989;50.426;15.352;2023-09-07T12:40:54;98859.22;;;42.10;18.32
77799;BME280;66989;50.426;15.352;2023-09-07T12:43:20;98859.84;;;42.07;18.74
77799;BME280;66989;50.426;15.352;2023-09-07T12:45:46;98852.56;;;42.12;18.52